createdAt,value
2022-10-17T04:08:26.988Z,102410.31
2022-10-17T04:11:33.955Z,102414.41
2022-10-17T04:14:03.697Z,102417.19
2022-10-17T04:16:31.529Z,102419.81
2022-10-17T04:19:02.969Z,102433.31
2022-10-17T04:21:36.327Z,102429.59
2022-10-17T04:24:09.601Z,102431.44
2022-10-17T04:27:08.919Z,102430.03
2022-10-17T04:29:40.188Z,102421.75
2022-10-17T04:32:15.169Z,102434.69
2022-10-17T04:34:52.960Z,102438.19
2022-10-17T04:37:22.679Z,102446.69
2022-10-17T04:39:52.059Z,102437.69
2022-10-17T04:42:19.378Z,102444.38
2022-10-17T04:44:47.136Z,102447.13
2022-10-17T04:47:17.264Z,102449.22
2022-10-17T04:49:45.856Z,102445.91
2022-10-17T04:52:14.839Z,102451.28
2022-10-17T04:54:48.448Z,102453.63
2022-10-17T04:57:15.700Z,102457.00
2022-10-17T04:59:51.657Z,102454.13
2022-10-17T05:02:25.157Z,102453.19
2022-10-17T05:04:53.661Z,102463.28
2022-10-17T05:07:21.780Z,102456.50
2022-10-17T05:09:59.080Z,102454.69
2022-10-17T05:12:27.047Z,102461.69
2022-10-17T05:14:55.203Z,102461.84
2022-10-17T05:17:25.456Z,102459.31
2022-10-17T05:19:53.108Z,102455.75
2022-10-17T05:22:20.365Z,102460.25
2022-10-17T05:24:48.465Z,102470.66
2022-10-17T05:27:16.103Z,102460.53
2022-10-17T05:29:43.359Z,102462.72
2022-10-17T05:32:19.865Z,102461.88
2022-10-17T05:34:47.810Z,102462.09
2022-10-17T05:37:16.020Z,102455.72
2022-10-17T05:39:51.375Z,102471.06
2022-10-17T05:42:19.928Z,102474.09
2022-10-17T05:44:48.491Z,102468.41
2022-10-17T05:47:18.334Z,102463.63
2022-10-17T05:49:49.941Z,102463.72
2022-10-17T05:52:22.152Z,102467.91
2022-10-17T05:55:00.528Z,102470.06
2022-10-17T05:57:28.319Z,102470.63
2022-10-17T05:59:57.047Z,102471.00
2022-10-17T06:02:24.550Z,102479.97
2022-10-17T06:04:53.123Z,102480.53
2022-10-17T06:07:23.317Z,102495.78
2022-10-17T06:09:50.879Z,102491.25
2022-10-17T06:12:18.713Z,102501.47
2022-10-17T06:14:47.245Z,102504.28
2022-10-17T06:17:16.555Z,102508.25
2022-10-17T06:19:45.134Z,102510.28
2022-10-17T06:22:15.124Z,102513.78
2022-10-17T06:24:43.297Z,102514.16
2022-10-17T06:27:13.421Z,102520.31
2022-10-17T06:29:41.777Z,102519.63
2022-10-17T06:32:12.623Z,102518.38
2022-10-17T06:34:43.847Z,102516.09
2022-10-17T06:37:11.759Z,102524.44
2022-10-17T06:39:40.959Z,102525.78
2022-10-17T06:42:13.511Z,102525.38
2022-10-17T06:45:02.572Z,102537.00
2022-10-17T06:47:42.984Z,102539.19
2022-10-17T06:50:40.713Z,102541.81
2022-10-17T06:53:15.332Z,102543.59
2022-10-17T06:55:53.948Z,102533.69
2022-10-17T06:58:37.044Z,102538.34
2022-10-17T07:01:23.277Z,102543.69
2022-10-17T07:03:55.630Z,102547.72
2022-10-17T07:06:26.953Z,102546.06
2022-10-17T07:09:01.315Z,102549.75
2022-10-17T07:11:29.176Z,102545.84
2022-10-17T07:13:56.475Z,102554.56
2022-10-17T07:16:24.467Z,102562.97
2022-10-17T07:19:00.090Z,102572.34
2022-10-17T07:21:27.493Z,102565.81
2022-10-17T07:23:54.844Z,102564.81
2022-10-17T07:26:22.757Z,102562.59
2022-10-17T07:28:55.531Z,102570.28
2022-10-17T07:31:32.479Z,102574.66
2022-10-17T07:34:00.869Z,102586.44
2022-10-17T07:36:30.091Z,102581.13
2022-10-17T07:39:00.028Z,102579.25
2022-10-17T07:41:28.517Z,102584.75
2022-10-17T07:43:55.976Z,102584.13
2022-10-17T07:46:29.295Z,102582.56
2022-10-17T07:48:56.674Z,102586.59
2022-10-17T07:51:24.720Z,102582.44
2022-10-17T07:53:52.049Z,102575.84
2022-10-17T07:56:19.322Z,102579.78
2022-10-17T07:58:48.246Z,102589.38
2022-10-17T08:01:16.238Z,102588.88
2022-10-17T08:03:45.021Z,102589.41
2022-10-17T08:06:13.219Z,102588.09
2022-10-17T08:08:41.149Z,102593.19
2022-10-17T08:11:10.876Z,102594.31
2022-10-17T08:13:40.463Z,102594.25
2022-10-17T08:16:11.017Z,102588.22
2022-10-17T08:18:39.910Z,102588.94
2022-10-17T08:21:08.511Z,102591.94
2022-10-17T08:23:36.582Z,102597.84
2022-10-17T08:26:06.316Z,102602.34
2022-10-17T08:28:36.083Z,102595.56
2022-10-17T08:31:06.393Z,102596.94
2022-10-17T08:33:34.023Z,102596.19
2022-10-17T08:36:05.340Z,102600.63
2022-10-17T08:38:35.610Z,102602.88
2022-10-17T08:41:32.146Z,102604.94
2022-10-17T08:44:18.118Z,102598.34
2022-10-17T08:46:51.021Z,102604.69
2022-10-17T08:49:33.921Z,102597.31
2022-10-17T08:52:25.408Z,102605.59
2022-10-17T08:54:52.821Z,102605.38
2022-10-17T08:57:20.169Z,102606.41
2022-10-17T08:59:52.114Z,102609.38
2022-10-17T09:02:40.001Z,102602.00
2022-10-17T09:05:22.529Z,102598.84
2022-10-17T09:07:52.829Z,102594.78
2022-10-17T09:10:55.984Z,102598.38
2022-10-17T09:13:38.369Z,102608.88
2022-10-17T09:16:11.723Z,102600.22
2022-10-17T09:18:43.021Z,102600.41
2022-10-17T09:21:10.634Z,102602.56
2022-10-17T09:23:59.526Z,102600.78
2022-10-17T09:26:42.069Z,102599.50
2022-10-17T09:29:17.944Z,102597.22
2022-10-17T09:32:00.155Z,102587.34
2022-10-17T09:34:29.821Z,102591.91
2022-10-17T09:37:00.009Z,102597.03
2022-10-17T09:39:31.931Z,102591.41
2022-10-17T09:42:01.476Z,102579.53
2022-10-17T09:44:51.677Z,102589.06
2022-10-17T09:47:22.590Z,102593.91
2022-10-17T09:49:51.086Z,102596.50
2022-10-17T09:52:30.090Z,102596.72
2022-10-17T09:55:04.166Z,102592.88
2022-10-17T09:58:02.302Z,102585.00
2022-10-17T10:00:30.773Z,102589.59
2022-10-17T10:03:25.939Z,102593.16
2022-10-17T10:06:06.388Z,102590.31
2022-10-17T10:08:51.499Z,102587.50
2022-10-17T10:11:23.455Z,102592.72
2022-10-17T10:13:51.244Z,102585.81
2022-10-17T10:16:31.530Z,102580.84
2022-10-17T10:18:59.187Z,102589.31
2022-10-17T10:21:27.965Z,102592.19
2022-10-17T10:24:10.479Z,102590.03
2022-10-17T10:26:40.548Z,102592.56
2022-10-17T10:29:34.194Z,102593.38
2022-10-17T10:32:27.664Z,102586.28
2022-10-17T10:35:00.406Z,102591.13
2022-10-17T10:37:42.271Z,102594.81
2022-10-17T10:40:35.145Z,102587.41
2022-10-17T10:43:05.569Z,102589.16
2022-10-17T10:45:47.546Z,102586.16
2022-10-17T10:48:34.234Z,102579.78
2022-10-17T10:51:04.723Z,102577.41
2022-10-17T10:54:19.358Z,102579.66
2022-10-17T10:56:53.493Z,102586.16
2022-10-17T10:59:36.020Z,102581.16
2022-10-17T11:02:21.954Z,102570.16
2022-10-17T11:05:01.601Z,102575.31
2022-10-17T11:08:04.206Z,102570.34
2022-10-17T11:10:44.347Z,102575.63
2022-10-17T11:13:29.017Z,102568.38
2022-10-17T11:16:07.258Z,102564.38
2022-10-17T11:18:46.720Z,102558.09
2022-10-17T11:24:39.194Z,102556.09
2022-10-17T11:27:08.092Z,102564.38
2022-10-17T11:29:39.288Z,102555.16
2022-10-17T11:32:25.999Z,102550.13
2022-10-17T11:35:02.152Z,102551.19
2022-10-17T11:37:42.897Z,102553.44
2022-10-17T11:40:36.705Z,102552.75
2022-10-17T11:43:17.641Z,102548.94
2022-10-17T11:45:55.520Z,102533.47
2022-10-17T11:48:36.925Z,102542.03
2022-10-17T11:54:29.760Z,102531.97
2022-10-17T11:57:34.787Z,102532.09
2022-10-17T12:00:17.192Z,102529.13
2022-10-17T12:03:00.666Z,102530.47
2022-10-17T12:05:51.471Z,102523.47
2022-10-17T12:08:45.329Z,102530.53
2022-10-17T12:11:29.677Z,102517.50
2022-10-17T12:13:57.528Z,102517.69
2022-10-17T12:16:24.761Z,102508.94
2022-10-17T12:19:21.475Z,102513.38
2022-10-17T12:21:56.416Z,102507.38
2022-10-17T12:24:35.344Z,102510.78
2022-10-17T12:27:31.087Z,102505.41
2022-10-17T12:30:16.309Z,102502.22
2022-10-17T12:33:25.848Z,102497.41
2022-10-17T12:36:27.253Z,102495.22
2022-10-17T12:39:03.618Z,102497.78
2022-10-17T12:41:51.308Z,102492.47
2022-10-17T12:44:21.399Z,102500.06
2022-10-17T12:46:51.396Z,102498.59
2022-10-17T12:49:38.145Z,102477.81
2022-10-17T12:52:17.376Z,102481.66
2022-10-17T12:55:12.565Z,102477.59
2022-10-17T12:58:02.570Z,102478.28
2022-10-17T13:01:05.274Z,102480.88
2022-10-17T13:03:44.358Z,102473.19
2022-10-17T13:06:21.272Z,102462.69
2022-10-17T13:09:03.474Z,102465.22
2022-10-17T13:11:34.697Z,102458.94
2022-10-17T13:14:09.239Z,102456.25
2022-10-17T13:16:39.260Z,102456.00
2022-10-17T13:19:18.938Z,102453.53
2022-10-17T13:22:17.428Z,102453.44
2022-10-17T13:24:45.243Z,102445.06
2022-10-17T13:27:31.048Z,102413.41
2022-10-17T13:30:00.756Z,102413.75
2022-10-17T13:32:37.691Z,102416.56
2022-10-17T13:35:07.250Z,102408.41
2022-10-17T13:37:35.897Z,102413.84
2022-10-17T13:40:17.466Z,102399.19
2022-10-17T13:42:55.867Z,102402.38
2022-10-17T13:45:29.659Z,102399.16
2022-10-17T13:47:59.856Z,102390.78
2022-10-17T13:50:45.230Z,102385.47
2022-10-17T13:53:12.803Z,102384.25
2022-10-17T13:56:09.129Z,102388.31
2022-10-17T13:58:43.323Z,102376.69
2022-10-17T14:01:12.712Z,102365.75
2022-10-17T14:03:49.795Z,102356.13
2022-10-17T14:06:22.182Z,102361.13
2022-10-17T14:08:58.401Z,102358.31
2022-10-17T14:11:32.236Z,102355.09
2022-10-17T14:14:03.175Z,102339.72
2022-10-17T14:16:41.172Z,102337.06
2022-10-17T14:19:30.132Z,102352.22
2022-10-17T14:22:24.562Z,102371.75
2022-10-17T14:24:53.411Z,102396.53
2022-10-17T14:27:32.030Z,102413.94
2022-10-17T14:30:02.640Z,102410.66
2022-10-17T14:35:40.326Z,102405.25
2022-10-17T14:37:59.273Z,102399.47
2022-10-17T14:40:28.969Z,102406.00
2022-10-17T14:42:59.134Z,102416.34
2022-10-17T14:45:30.415Z,102418.06
2022-10-17T14:48:03.995Z,102424.22
2022-10-17T14:50:33.140Z,102417.53
2022-10-17T14:53:21.098Z,102413.28
2022-10-17T14:56:00.464Z,102416.06
2022-10-17T14:58:33.684Z,102413.28
2022-10-17T15:01:02.182Z,102414.94
2022-10-17T15:03:30.014Z,102415.38
2022-10-17T15:05:59.311Z,102412.78
2022-10-17T15:08:27.080Z,102406.81
2022-10-17T15:10:54.362Z,102406.31
2022-10-17T15:13:31.241Z,102410.59
2022-10-17T15:16:01.393Z,102398.41
2022-10-17T15:18:28.590Z,102395.78
2022-10-17T15:21:04.771Z,102392.41
2022-10-17T15:23:34.216Z,102395.25
2022-10-17T15:26:01.960Z,102396.63
2022-10-17T15:28:29.851Z,102399.78
2022-10-17T15:30:57.106Z,102404.13
2022-10-17T15:33:24.412Z,102387.97
2022-10-17T15:35:52.574Z,102397.09
2022-10-17T15:38:20.152Z,102400.38
2022-10-17T15:40:53.138Z,102402.09
2022-10-17T15:43:20.398Z,102400.97
2022-10-17T15:45:48.301Z,102407.09
2022-10-17T15:48:24.377Z,102400.94
2022-10-17T15:50:52.234Z,102406.44
2022-10-17T15:53:19.580Z,102405.75
2022-10-17T15:55:50.003Z,102412.56
2022-10-17T15:58:19.740Z,102404.75
2022-10-17T16:00:48.667Z,102408.81
2022-10-17T16:03:16.449Z,102409.66
2022-10-17T16:05:43.864Z,102406.31
2022-10-17T16:08:11.240Z,102406.41
2022-10-17T16:10:41.034Z,102414.16
2022-10-17T16:13:17.877Z,102415.94
2022-10-17T16:15:45.200Z,102420.81
2022-10-17T16:18:12.660Z,102433.06
2022-10-17T16:20:40.315Z,102431.00
2022-10-17T16:23:08.436Z,102431.00
2022-10-17T16:25:35.764Z,102431.81
2022-10-17T16:28:04.118Z,102434.81
2022-10-17T16:30:32.451Z,102434.19
2022-10-17T16:33:00.251Z,102439.97
2022-10-17T16:35:33.395Z,102439.44
2022-10-17T16:38:06.743Z,102436.66
2022-10-17T16:40:34.555Z,102435.28
2022-10-17T16:43:02.380Z,102441.09
2022-10-17T16:45:30.652Z,102441.75
2022-10-17T16:47:57.945Z,102448.03
2022-10-17T16:50:26.049Z,102445.56
2022-10-17T16:52:53.408Z,102443.06
2022-10-17T16:55:21.369Z,102447.38
2022-10-17T16:57:49.438Z,102446.75
2022-10-17T17:00:17.872Z,102454.25
2022-10-17T17:02:47.881Z,102463.03
2022-10-17T17:05:15.769Z,102460.94
2022-10-17T17:07:43.546Z,102459.44
2022-10-17T17:10:10.843Z,102460.94
2022-10-17T17:12:38.080Z,102462.91
2022-10-17T17:15:06.325Z,102460.41
2022-10-17T17:17:49.561Z,102467.22
2022-10-17T17:20:20.057Z,102466.41
2022-10-17T17:22:48.788Z,102467.81
2022-10-17T17:25:16.340Z,102469.97
2022-10-17T17:27:43.639Z,102465.31
2022-10-17T17:30:11.375Z,102471.09
2022-10-17T17:32:38.629Z,102467.72
2022-10-17T17:35:06.445Z,102466.91
2022-10-17T17:37:34.252Z,102467.13
2022-10-17T17:40:02.180Z,102465.84
2022-10-17T17:42:29.917Z,102481.13
2022-10-17T17:45:00.015Z,102474.78
2022-10-17T17:47:29.643Z,102474.16
2022-10-17T17:49:57.216Z,102476.31
2022-10-17T17:52:24.516Z,102476.97
2022-10-17T17:54:51.781Z,102482.47
2022-10-17T17:57:19.308Z,102481.84
2022-10-17T17:59:48.467Z,102481.44
2022-10-17T18:02:16.256Z,102484.41
2022-10-17T18:04:43.737Z,102488.63
2022-10-17T18:07:10.976Z,102486.53
2022-10-17T18:09:38.724Z,102488.66
2022-10-17T18:12:05.960Z,102490.56
2022-10-17T18:14:33.204Z,102489.06
2022-10-17T18:17:00.468Z,102499.91
2022-10-17T18:19:28.910Z,102489.91
2022-10-17T18:21:56.809Z,102495.03
2022-10-17T18:24:24.603Z,102499.03
2022-10-17T18:26:55.956Z,102507.31
2022-10-17T18:29:23.197Z,102502.88
2022-10-17T18:31:50.436Z,102503.66
2022-10-17T18:34:18.201Z,102505.34
2022-10-17T18:36:45.604Z,102515.97
2022-10-17T18:39:12.921Z,102516.41
2022-10-17T18:41:40.773Z,102518.78
2022-10-17T18:44:08.169Z,102516.78
2022-10-17T18:46:40.619Z,102514.25
2022-10-17T18:49:10.936Z,102512.75
2022-10-17T18:51:38.802Z,102513.38
2022-10-17T18:54:11.383Z,102514.63
2022-10-17T18:56:39.160Z,102516.34
2022-10-17T18:59:06.620Z,102514.88
2022-10-17T19:01:34.328Z,102510.94
2022-10-17T19:04:02.029Z,102505.84
2022-10-17T19:06:31.897Z,102514.09
2022-10-17T19:09:00.969Z,102513.03
2022-10-17T19:11:30.509Z,102510.03
2022-10-17T19:14:01.084Z,102523.19
2022-10-17T19:16:35.391Z,102522.38
2022-10-17T19:19:06.851Z,102521.25
2022-10-17T19:21:34.725Z,102522.75
2022-10-17T19:24:05.055Z,102526.53
2022-10-17T19:26:36.293Z,102526.88
2022-10-17T19:29:04.734Z,102518.88
2022-10-17T19:31:34.338Z,102523.94
2022-10-17T19:34:03.209Z,102525.59
2022-10-17T19:36:34.057Z,102528.56
2022-10-17T19:39:07.200Z,102523.88
2022-10-17T19:41:36.439Z,102520.91
2022-10-17T19:44:03.736Z,102518.59
2022-10-17T19:46:32.060Z,102516.25
2022-10-17T19:48:59.872Z,102521.94
2022-10-17T19:51:28.943Z,102512.94
2022-10-17T19:54:00.393Z,102508.84
2022-10-17T19:56:30.568Z,102513.78
2022-10-17T19:58:59.122Z,102507.88
2022-10-17T20:01:29.592Z,102514.41
2022-10-17T20:03:57.242Z,102509.72
2022-10-17T20:06:24.708Z,102508.34
2022-10-17T20:08:53.211Z,102510.25
2022-10-17T20:11:24.192Z,102511.72
2022-10-17T20:13:52.746Z,102516.56
2022-10-17T20:16:22.884Z,102512.69
2022-10-17T20:18:52.364Z,102516.22
2022-10-17T20:21:23.150Z,102508.97
2022-10-17T20:23:51.525Z,102507.22
2022-10-17T20:26:33.505Z,102510.81
2022-10-17T20:29:08.861Z,102512.94
2022-10-17T20:31:36.519Z,102510.78
2022-10-17T20:34:04.705Z,102521.78
2022-10-17T20:36:36.538Z,102527.00
2022-10-17T20:39:04.808Z,102517.91
2022-10-17T20:41:32.362Z,102521.88
2022-10-17T20:43:59.583Z,102530.94
2022-10-17T20:46:36.869Z,102527.16
2022-10-17T20:49:07.368Z,102530.69
2022-10-17T20:51:35.693Z,102536.56
2022-10-17T20:54:03.730Z,102534.31
2022-10-17T20:56:34.013Z,102532.81
2022-10-17T20:59:05.739Z,102528.31
2022-10-17T21:01:34.965Z,102538.19
2022-10-17T21:04:27.026Z,102537.34
2022-10-17T21:06:52.052Z,102531.94
2022-10-17T21:09:20.181Z,102536.22
2022-10-17T21:11:51.054Z,102537.25
2022-10-17T21:14:18.545Z,102530.13
2022-10-17T21:16:45.853Z,102534.13
2022-10-17T21:19:14.907Z,102532.16
2022-10-17T21:21:44.837Z,102534.31
2022-10-17T21:24:16.738Z,102533.28
2022-10-17T21:26:45.436Z,102538.66
2022-10-17T21:29:14.006Z,102532.84
2022-10-17T21:31:43.857Z,102533.03
2022-10-17T21:34:14.133Z,102532.38
2022-10-17T21:36:42.167Z,102523.09
2022-10-17T21:39:11.773Z,102531.13
2022-10-17T21:41:39.069Z,102535.78
2022-10-17T21:44:18.206Z,102539.13
2022-10-17T21:46:46.644Z,102537.34
